sensor_id;sensor_type;location;lat;lon;timestamp;pressure;altitude;pressure_sealevel;temperature;humidity
79540;BME280;76655;52.122;5.406;2024-02-26T00:01:48;100121.47;;;21.25;56.13
79540;BME280;76655;52.122;5.406;2024-02-26T00:04:15;100123.81;;;21.20;56.54
79540;BME280;76655;52.122;5.406;2024-02-26T00:06:41;100125.34;;;21.14;56.20
79540;BME280;76655;52.122;5.406;2024-02-26T00:09:09;100123.06;;;21.10;56.21
79540;BME280;76655;52.122;5.406;2024-02-26T00:11:36;100123.53;;;21.05;56.26
79540;BME280;76655;52.122;5.406;2024-02-26T00:14:03;100132.06;;;21.02;56.71
79540;BME280;76655;52.122;5.406;2024-02-26T00:16:30;100128.78;;;20.99;56.67
79540;BME280;76655;52.122;5.406;2024-02-26T00:18:57;100125.50;;;20.95;56.54
79540;BME280;76655;52.122;5.406;2024-02-26T00:21:23;100134.03;;;20.92;56.23
79540;BME280;76655;52.122;5.406;2024-02-26T00:23:50;100137.97;;;20.90;56.36
79540;BME280;76655;52.122;5.406;2024-02-26T00:26:19;100138.44;;;20.85;56.62
79540;BME280;76655;52.122;5.406;2024-02-26T00:28:46;100134.28;;;20.81;56.70
79540;BME280;76655;52.122;5.406;2024-02-26T00:31:12;100134.63;;;20.78;56.54
79540;BME280;76655;52.122;5.406;2024-02-26T00:33:39;100137.81;;;20.73;56.35
79540;BME280;76655;52.122;5.406;2024-02-26T00:36:06;100134.53;;;20.70;56.27
79540;BME280;76655;52.122;5.406;2024-02-26T00:38:32;100133.13;;;20.66;56.56
79540;BME280;76655;52.122;5.406;2024-02-26T00:40:59;100137.91;;;20.64;56.44
79540;BME280;76655;52.122;5.406;2024-02-26T00:43:26;100138.25;;;20.61;56.54
79540;BME280;76655;52.122;5.406;2024-02-26T00:45:52;100136.66;;;20.58;56.66
79540;BME280;76655;52.122;5.406;2024-02-26T00:48:19;100138.84;;;20.55;56.66
79540;BME280;76655;52.122;5.406;2024-02-26T00:50:45;100141.91;;;20.52;56.83
79540;BME280;76655;52.122;5.406;2024-02-26T00:53:12;100139.50;;;20.49;56.72
79540;BME280;76655;52.122;5.406;2024-02-26T00:55:38;100141.66;;;20.45;56.64
79540;BME280;76655;52.122;5.406;2024-02-26T00:58:05;100136.38;;;20.44;56.38
79540;BME280;76655;52.122;5.406;2024-02-26T01:00:31;100145.03;;;20.39;56.63
79540;BME280;76655;52.122;5.406;2024-02-26T01:02:58;100142.44;;;20.38;56.79
79540;BME280;76655;52.122;5.406;2024-02-26T01:05:26;100139.03;;;20.35;56.72
79540;BME280;76655;52.122;5.406;2024-02-26T01:07:52;100141.91;;;20.34;56.54
79540;BME280;76655;52.122;5.406;2024-02-26T01:10:19;100137.63;;;20.31;56.75
79540;BME280;76655;52.122;5.406;2024-02-26T01:12:45;100135.03;;;20.30;56.64
79540;BME280;76655;52.122;5.406;2024-02-26T01:15:12;100135.31;;;20.27;56.40
79540;BME280;76655;52.122;5.406;2024-02-26T01:17:39;100139.22;;;20.24;56.32
79540;BME280;76655;52.122;5.406;2024-02-26T01:20:06;100136.63;;;20.23;56.87
79540;BME280;76655;52.122;5.406;2024-02-26T01:22:33;100136.97;;;20.20;56.56
79540;BME280;76655;52.122;5.406;2024-02-26T01:24:59;100135.41;;;20.17;56.70
79540;BME280;76655;52.122;5.406;2024-02-26T01:27:25;100138.28;;;20.16;56.48
79540;BME280;76655;52.122;5.406;2024-02-26T01:29:53;100132.13;;;20.14;56.84
79540;BME280;76655;52.122;5.406;2024-02-26T01:32:20;100128.00;;;20.10;56.70
79540;BME280;76655;52.122;5.406;2024-02-26T01:34:46;100124.56;;;20.08;56.56
79540;BME280;76655;52.122;5.406;2024-02-26T01:37:13;100123.84;;;20.06;56.78
79540;BME280;76655;52.122;5.406;2024-02-26T01:39:39;100124.88;;;20.05;56.45
79540;BME280;76655;52.122;5.406;2024-02-26T01:42:08;100118.69;;;20.03;56.83
79540;BME280;76655;52.122;5.406;2024-02-26T01:44:34;100122.59;;;20.00;56.72
79540;BME280;76655;52.122;5.406;2024-02-26T01:47:01;100129.06;;;19.99;56.89
79540;BME280;76655;52.122;5.406;2024-02-26T01:49:29;100126.50;;;19.98;56.80
79540;BME280;76655;52.122;5.406;2024-02-26T01:51:56;100124.06;;;19.95;56.78
79540;BME280;76655;52.122;5.406;2024-02-26T01:54:23;100132.56;;;19.92;56.58
79540;BME280;76655;52.122;5.406;2024-02-26T01:56:50;100127.28;;;19.90;56.80
79540;BME280;76655;52.122;5.406;2024-02-26T01:59:17;100139.19;;;19.89;56.65
79540;BME280;76655;52.122;5.406;2024-02-26T02:01:47;100142.94;;;19.88;56.81
79540;BME280;76655;52.122;5.406;2024-02-26T02:04:15;100145.97;;;19.85;56.94
79540;BME280;76655;52.122;5.406;2024-02-26T02:06:45;100141.69;;;19.82;56.64
79540;BME280;76655;52.122;5.406;2024-02-26T02:09:12;100140.97;;;19.80;56.69
79540;BME280;76655;52.122;5.406;2024-02-26T02:11:39;100151.88;;;19.80;56.71
79540;BME280;76655;52.122;5.406;2024-02-26T02:14:06;100142.13;;;19.78;56.59
79540;BME280;76655;52.122;5.406;2024-02-26T02:16:32;100145.03;;;19.76;56.80
79540;BME280;76655;52.122;5.406;2024-02-26T02:18:59;100146.91;;;19.76;56.90
79540;BME280;76655;52.122;5.406;2024-02-26T02:21:25;100150.75;;;19.73;56.87
79540;BME280;76655;52.122;5.406;2024-02-26T02:23:52;100159.97;;;19.72;56.93
79540;BME280;76655;52.122;5.406;2024-02-26T02:26:18;100165.56;;;19.71;56.75
79540;BME280;76655;52.122;5.406;2024-02-26T02:28:46;100155.66;;;19.70;56.36
79540;BME280;76655;52.122;5.406;2024-02-26T02:31:13;100166.75;;;19.68;56.45
79540;BME280;76655;52.122;5.406;2024-02-26T02:33:40;100165.00;;;19.67;56.72
79540;BME280;76655;52.122;5.406;2024-02-26T02:36:07;100167.03;;;19.65;56.87
79540;BME280;76655;52.122;5.406;2024-02-26T02:38:37;100166.31;;;19.63;56.79
79540;BME280;76655;52.122;5.406;2024-02-26T02:41:04;100172.81;;;19.62;56.67
79540;BME280;76655;52.122;5.406;2024-02-26T02:43:31;100178.25;;;19.62;56.61
79540;BME280;76655;52.122;5.406;2024-02-26T02:45:57;100182.00;;;19.61;56.34
79540;BME280;76655;52.122;5.406;2024-02-26T02:48:24;100179.56;;;19.58;56.55
79540;BME280;76655;52.122;5.406;2024-02-26T02:50:50;100190.47;;;19.58;56.74
79540;BME280;76655;52.122;5.406;2024-02-26T02:53:17;100184.28;;;19.56;56.72
79540;BME280;76655;52.122;5.406;2024-02-26T02:55:44;100186.31;;;19.54;56.70
79540;BME280;76655;52.122;5.406;2024-02-26T02:58:11;100187.31;;;19.53;56.58
79540;BME280;76655;52.122;5.406;2024-02-26T03:00:37;100193.78;;;19.52;56.58
79540;BME280;76655;52.122;5.406;2024-02-26T03:03:04;100191.22;;;19.51;56.70
79540;BME280;76655;52.122;5.406;2024-02-26T03:05:30;100198.66;;;19.49;56.58
79540;BME280;76655;52.122;5.406;2024-02-26T03:07:57;100196.97;;;19.48;56.57
79540;BME280;76655;52.122;5.406;2024-02-26T03:10:24;100208.00;;;19.46;56.61
79540;BME280;76655;52.122;5.406;2024-02-26T03:12:50;100214.47;;;19.45;56.78
79540;BME280;76655;52.122;5.406;2024-02-26T03:15:17;100218.22;;;19.44;56.68
79540;BME280;76655;52.122;5.406;2024-02-26T03:17:43;100221.94;;;19.43;56.64
79540;BME280;76655;52.122;5.406;2024-02-26T03:20:10;100221.25;;;19.41;56.82
79540;BME280;76655;52.122;5.406;2024-02-26T03:22:38;100238.44;;;19.42;56.66
79540;BME280;76655;52.122;5.406;2024-02-26T03:25:06;100230.53;;;19.38;56.71
79540;BME280;76655;52.122;5.406;2024-02-26T03:27:32;100223.38;;;19.37;56.68
79540;BME280;76655;52.122;5.406;2024-02-26T03:29:59;100230.69;;;19.37;56.72
79540;BME280;76655;52.122;5.406;2024-02-26T03:32:26;100225.38;;;19.35;56.54
79540;BME280;76655;52.122;5.406;2024-02-26T03:34:52;100235.59;;;19.33;56.48
79540;BME280;76655;52.122;5.406;2024-02-26T03:37:22;100237.44;;;19.33;56.61
79540;BME280;76655;52.122;5.406;2024-02-26T03:39:49;100239.44;;;19.31;56.53
79540;BME280;76655;52.122;5.406;2024-02-26T03:42:15;100237.75;;;19.30;56.54
79540;BME280;76655;52.122;5.406;2024-02-26T03:44:43;100240.59;;;19.28;56.55
79540;BME280;76655;52.122;5.406;2024-02-26T03:47:09;100243.50;;;19.27;56.66
79540;BME280;76655;52.122;5.406;2024-02-26T03:49:36;100240.91;;;19.25;56.42
79540;BME280;76655;52.122;5.406;2024-02-26T03:52:03;100240.03;;;19.25;56.33
79540;BME280;76655;52.122;5.406;2024-02-26T03:54:29;100248.50;;;19.22;56.85
79540;BME280;76655;52.122;5.406;2024-02-26T03:56:56;100249.38;;;19.22;56.54
79540;BME280;76655;52.122;5.406;2024-02-26T03:59:22;100241.50;;;19.19;56.43
79540;BME280;76655;52.122;5.406;2024-02-26T04:01:51;100249.81;;;19.18;56.52
79540;BME280;76655;52.122;5.406;2024-02-26T04:04:17;100242.63;;;19.17;56.48
79540;BME280;76655;52.122;5.406;2024-02-26T04:06:45;100234.63;;;19.15;56.36
79540;BME280;76655;52.122;5.406;2024-02-26T04:09:15;100239.19;;;19.15;56.35
79540;BME280;76655;52.122;5.406;2024-02-26T04:11:42;100249.41;;;19.13;56.15
79540;BME280;76655;52.122;5.406;2024-02-26T04:14:11;100250.41;;;19.12;56.39
79540;BME280;76655;52.122;5.406;2024-02-26T04:16:38;100259.56;;;19.11;55.79
79540;BME280;76655;52.122;5.406;2024-02-26T04:19:05;100257.13;;;19.08;56.47
79540;BME280;76655;52.122;5.406;2024-02-26T04:21:33;100258.00;;;19.08;56.27
79540;BME280;76655;52.122;5.406;2024-02-26T04:24:00;100259.00;;;19.07;56.24
79540;BME280;76655;52.122;5.406;2024-02-26T04:26:29;100265.44;;;19.06;56.30
79540;BME280;76655;52.122;5.406;2024-02-26T04:28:56;100272.91;;;19.04;56.28
79540;BME280;76655;52.122;5.406;2024-02-26T04:31:22;100273.03;;;19.03;56.18
79540;BME280;76655;52.122;5.406;2024-02-26T04:33:49;100276.78;;;19.02;56.19
79540;BME280;76655;52.122;5.406;2024-02-26T04:36:16;100275.94;;;19.01;56.35
79540;BME280;76655;52.122;5.406;2024-02-26T04:38:43;100276.06;;;19.00;56.38
79540;BME280;76655;52.122;5.406;2024-02-26T04:41:10;100275.19;;;18.99;56.43
79540;BME280;76655;52.122;5.406;2024-02-26T04:43:37;100288.00;;;18.99;56.35
79540;BME280;76655;52.122;5.406;2024-02-26T04:46:08;100281.69;;;18.98;56.22
79540;BME280;76655;52.122;5.406;2024-02-26T04:48:35;100278.38;;;18.95;56.37
79540;BME280;76655;52.122;5.406;2024-02-26T04:51:02;100283.81;;;18.95;56.46
79540;BME280;76655;52.122;5.406;2024-02-26T04:53:29;100284.94;;;18.92;55.93
79540;BME280;76655;52.122;5.406;2024-02-26T04:55:56;100278.66;;;18.92;56.44
79540;BME280;76655;52.122;5.406;2024-02-26T04:58:22;100290.56;;;18.91;56.23
79540;BME280;76655;52.122;5.406;2024-02-26T05:00:49;100287.09;;;18.88;56.33
79540;BME280;76655;52.122;5.406;2024-02-26T05:03:15;100289.97;;;18.87;56.48
79540;BME280;76655;52.122;5.406;2024-02-26T05:05:45;100292.84;;;18.85;56.34
79540;BME280;76655;52.122;5.406;2024-02-26T05:08:12;100302.75;;;18.86;56.49
79540;BME280;76655;52.122;5.406;2024-02-26T05:10:38;100300.00;;;18.86;56.25
79540;BME280;76655;52.122;5.406;2024-02-26T05:13:09;100302.88;;;18.85;56.16
79540;BME280;76655;52.122;5.406;2024-02-26T05:15:36;100304.88;;;18.83;56.35
79540;BME280;76655;52.122;5.406;2024-02-26T05:18:02;100304.03;;;18.82;56.21
79540;BME280;76655;52.122;5.406;2024-02-26T05:20:29;100299.56;;;18.81;56.16
79540;BME280;76655;52.122;5.406;2024-02-26T05:22:57;100305.19;;;18.80;56.24
79540;BME280;76655;52.122;5.406;2024-02-26T05:25:25;100299.00;;;18.78;56.29
79540;BME280;76655;52.122;5.406;2024-02-26T05:27:51;100293.53;;;18.78;56.13
79540;BME280;76655;52.122;5.406;2024-02-26T05:30:18;100305.47;;;18.77;56.20
79540;BME280;76655;52.122;5.406;2024-02-26T05:32:45;100308.19;;;18.77;56.51
79540;BME280;76655;52.122;5.406;2024-02-26T05:35:12;100306.59;;;18.74;56.14
79540;BME280;76655;52.122;5.406;2024-02-26T05:37:38;100314.06;;;18.72;56.33
79540;BME280;76655;52.122;5.406;2024-02-26T05:40:05;100314.06;;;18.72;56.08
79540;BME280;76655;52.122;5.406;2024-02-26T05:42:32;100316.91;;;18.71;56.51
79540;BME280;76655;52.122;5.406;2024-02-26T05:44:59;100312.47;;;18.70;56.27
79540;BME280;76655;52.122;5.406;2024-02-26T05:47:32;100324.25;;;18.70;56.10
79540;BME280;76655;52.122;5.406;2024-02-26T05:49:59;100324.38;;;18.69;56.44
79540;BME280;76655;52.122;5.406;2024-02-26T05:52:27;100327.22;;;18.67;56.31
79540;BME280;76655;52.122;5.406;2024-02-26T05:54:55;100329.09;;;18.67;56.30
79540;BME280;76655;52.122;5.406;2024-02-26T05:57:22;100334.69;;;18.65;56.17
79540;BME280;76655;52.122;5.406;2024-02-26T05:59:48;100332.94;;;18.64;56.03
79540;BME280;76655;52.122;5.406;2024-02-26T06:02:15;100347.59;;;18.63;56.11
79540;BME280;76655;52.122;5.406;2024-02-26T06:04:41;100348.56;;;18.62;56.38
79540;BME280;76655;52.122;5.406;2024-02-26T06:07:08;100336.94;;;18.60;56.13
79540;BME280;76655;52.122;5.406;2024-02-26T06:09:35;100341.56;;;18.60;56.27
79540;BME280;76655;52.122;5.406;2024-02-26T06:12:01;100343.41;;;18.59;56.21
79540;BME280;76655;52.122;5.406;2024-02-26T06:14:28;100351.72;;;18.58;56.20
79540;BME280;76655;52.122;5.406;2024-02-26T06:16:54;100353.56;;;18.57;55.94
79540;BME280;76655;52.122;5.406;2024-02-26T06:19:20;100363.75;;;18.55;56.12
79540;BME280;76655;52.122;5.406;2024-02-26T06:21:47;100360.28;;;18.53;55.87
79540;BME280;76655;52.122;5.406;2024-02-26T06:24:14;100369.47;;;18.52;55.84
79540;BME280;76655;52.122;5.406;2024-02-26T06:26:40;100366.75;;;18.52;55.91
79540;BME280;76655;52.122;5.406;2024-02-26T06:29:07;100366.75;;;18.52;56.19
79540;BME280;76655;52.122;5.406;2024-02-26T06:31:33;100363.25;;;18.50;55.95
79540;BME280;76655;52.122;5.406;2024-02-26T06:34:00;100374.16;;;18.50;56.04
79540;BME280;76655;52.122;5.406;2024-02-26T06:36:26;100376.00;;;18.50;56.12
79540;BME280;76655;52.122;5.406;2024-02-26T06:38:53;100379.59;;;18.50;55.89
79540;BME280;76655;52.122;5.406;2024-02-26T06:41:20;100375.28;;;18.48;56.02
79540;BME280;76655;52.122;5.406;2024-02-26T06:43:47;100380.75;;;18.48;55.90
79540;BME280;76655;52.122;5.406;2024-02-26T06:46:14;100389.03;;;18.46;56.07
79540;BME280;76655;52.122;5.406;2024-02-26T06:48:40;100383.75;;;18.45;56.10
79540;BME280;76655;52.122;5.406;2024-02-26T06:51:07;100397.34;;;18.45;55.97
79540;BME280;76655;52.122;5.406;2024-02-26T06:53:34;100399.31;;;18.42;55.83
79540;BME280;76655;52.122;5.406;2024-02-26T06:56:00;100393.88;;;18.42;56.01
79540;BME280;76655;52.122;5.406;2024-02-26T06:58:26;100393.19;;;18.40;56.07
79540;BME280;76655;52.122;5.406;2024-02-26T07:00:53;100396.75;;;18.41;56.29
79540;BME280;76655;52.122;5.406;2024-02-26T07:03:19;100399.59;;;18.39;55.96
79540;BME280;76655;52.122;5.406;2024-02-26T07:05:46;100404.19;;;18.39;55.87
79540;BME280;76655;52.122;5.406;2024-02-26T07:08:13;100416.09;;;18.38;55.96
79540;BME280;76655;52.122;5.406;2024-02-26T07:10:39;100417.94;;;18.37;55.84
79540;BME280;76655;52.122;5.406;2024-02-26T07:13:06;100412.63;;;18.36;55.73
79540;BME280;76655;52.122;5.406;2024-02-26T07:15:32;100422.66;;;18.35;55.76
79540;BME280;76655;52.122;5.406;2024-02-26T07:17:59;100426.38;;;18.34;55.74
79540;BME280;76655;52.122;5.406;2024-02-26T07:20:30;100430.09;;;18.33;55.72
79540;BME280;76655;52.122;5.406;2024-02-26T07:22:57;100440.13;;;18.33;56.10
79540;BME280;76655;52.122;5.406;2024-02-26T07:25:23;100441.00;;;18.33;55.97
79540;BME280;76655;52.122;5.406;2024-02-26T07:27:50;100444.41;;;18.35;55.94
79540;BME280;76655;52.122;5.406;2024-02-26T07:30:17;100443.44;;;18.36;56.29
79540;BME280;76655;52.122;5.406;2024-02-26T07:32:44;100442.56;;;18.36;56.14
79540;BME280;76655;52.122;5.406;2024-02-26T07:35:16;100453.44;;;18.36;56.42
79540;BME280;76655;52.122;5.406;2024-02-26T07:37:43;100447.88;;;18.37;56.43
79540;BME280;76655;52.122;5.406;2024-02-26T07:40:10;100457.78;;;18.38;56.28
79540;BME280;76655;52.122;5.406;2024-02-26T07:42:37;100448.59;;;18.39;56.40
79540;BME280;76655;52.122;5.406;2024-02-26T07:45:03;100452.19;;;18.40;56.38
79540;BME280;76655;52.122;5.406;2024-02-26T07:47:30;100461.34;;;18.39;56.34
79540;BME280;76655;52.122;5.406;2024-02-26T07:49:57;100463.94;;;18.40;56.52
79540;BME280;76655;52.122;5.406;2024-02-26T07:52:24;100464.66;;;18.42;56.70
79540;BME280;76655;52.122;5.406;2024-02-26T07:54:50;100461.81;;;18.44;56.45
79540;BME280;76655;52.122;5.406;2024-02-26T07:57:17;100480.88;;;18.44;56.45
79540;BME280;76655;52.122;5.406;2024-02-26T07:59:44;100484.44;;;18.45;56.14
79540;BME280;76655;52.122;5.406;2024-02-26T08:02:11;100485.31;;;18.45;56.22
79540;BME280;76655;52.122;5.406;2024-02-26T08:04:37;100486.19;;;18.46;56.27
79540;BME280;76655;52.122;5.406;2024-02-26T08:07:04;100485.91;;;18.49;56.42
79540;BME280;76655;52.122;5.406;2024-02-26T08:09:30;100488.97;;;18.55;56.26
79540;BME280;76655;52.122;5.406;2024-02-26T08:11:57;100485.44;;;18.64;56.14
79540;BME280;76655;52.122;5.406;2024-02-26T08:14:23;100495.50;;;18.73;55.78
79540;BME280;76655;52.122;5.406;2024-02-26T08:16:50;100503.84;;;18.81;56.02
79540;BME280;76655;52.122;5.406;2024-02-26T08:19:16;100500.44;;;18.89;55.78
79540;BME280;76655;52.122;5.406;2024-02-26T08:21:44;100500.72;;;18.96;55.94
79540;BME280;76655;52.122;5.406;2024-02-26T08:24:10;100504.63;;;19.03;55.75
79540;BME280;76655;52.122;5.406;2024-02-26T08:26:37;100509.53;;;19.09;55.61
79540;BME280;76655;52.122;5.406;2024-02-26T08:29:03;100511.69;;;19.15;55.52
79540;BME280;76655;52.122;5.406;2024-02-26T08:31:30;100510.28;;;19.20;55.32
79540;BME280;76655;52.122;5.406;2024-02-26T08:33:56;100516.06;;;19.27;55.10
79540;BME280;76655;52.122;5.406;2024-02-26T08:36:24;100517.34;;;19.32;55.22
79540;BME280;76655;52.122;5.406;2024-02-26T08:38:51;100522.50;;;19.35;54.96
79540;BME280;76655;52.122;5.406;2024-02-26T08:41:17;100526.97;;;19.36;55.08
79540;BME280;76655;52.122;5.406;2024-02-26T08:43:44;100521.13;;;19.41;54.86
79540;BME280;76655;52.122;5.406;2024-02-26T08:46:12;100533.59;;;19.44;54.76
79540;BME280;76655;52.122;5.406;2024-02-26T08:48:39;100533.19;;;19.48;54.90
79540;BME280;76655;52.122;5.406;2024-02-26T08:51:07;100531.88;;;19.52;54.96
79540;BME280;76655;52.122;5.406;2024-02-26T08:53:35;100539.81;;;19.55;54.99
79540;BME280;76655;52.122;5.406;2024-02-26T08:56:09;100539.34;;;19.60;54.88
79540;BME280;76655;52.122;5.406;2024-02-26T08:58:35;100544.53;;;19.63;55.38
79540;BME280;76655;52.122;5.406;2024-02-26T09:01:02;100556.19;;;19.65;54.99
79540;BME280;76655;52.122;5.406;2024-02-26T09:03:28;100557.75;;;19.67;55.10
79540;BME280;76655;52.122;5.406;2024-02-26T09:05:55;100553.88;;;19.70;54.83
79540;BME280;76655;52.122;5.406;2024-02-26T09:08:23;100555.47;;;19.72;54.77
79540;BME280;76655;52.122;5.406;2024-02-26T09:10:50;100559.78;;;19.75;54.76
79540;BME280;76655;52.122;5.406;2024-02-26T09:13:16;100557.91;;;19.75;54.73
79540;BME280;76655;52.122;5.406;2024-02-26T09:15:43;100564.81;;;19.79;54.72
79540;BME280;76655;52.122;5.406;2024-02-26T09:18:09;100567.38;;;19.81;54.54
79540;BME280;76655;52.122;5.406;2024-02-26T09:20:36;100564.53;;;19.82;54.82
79540;BME280;76655;52.122;5.406;2024-02-26T09:23:02;100572.28;;;19.87;54.68
79540;BME280;76655;52.122;5.406;2024-02-26T09:25:29;100570.25;;;19.89;54.42
79540;BME280;76655;52.122;5.406;2024-02-26T09:27:56;100580.88;;;19.92;54.59
79540;BME280;76655;52.122;5.406;2024-02-26T09:30:22;100588.38;;;20.00;54.68
79540;BME280;76655;52.122;5.406;2024-02-26T09:32:49;100580.31;;;19.98;54.06
79540;BME280;76655;52.122;5.406;2024-02-26T09:35:16;100587.66;;;19.98;54.10
79540;BME280;76655;52.122;5.406;2024-02-26T09:37:42;100583.31;;;19.95;54.13
79540;BME280;76655;52.122;5.406;2024-02-26T09:40:11;100595.09;;;19.96;53.82
79540;BME280;76655;52.122;5.406;2024-02-26T09:42:43;100595.97;;;19.96;53.67
79540;BME280;76655;52.122;5.406;2024-02-26T09:45:12;100601.31;;;19.98;53.88
79540;BME280;76655;52.122;5.406;2024-02-26T09:47:44;100601.31;;;19.98;53.84
79540;BME280;76655;52.122;5.406;2024-02-26T09:50:11;100603.75;;;20.01;53.68
79540;BME280;76655;52.122;5.406;2024-02-26T09:52:41;100615.22;;;20.04;53.63
79540;BME280;76655;52.122;5.406;2024-02-26T09:55:09;100608.75;;;20.05;53.51
79540;BME280;76655;52.122;5.406;2024-02-26T09:57:43;100614.06;;;20.07;53.34
79540;BME280;76655;52.122;5.406;2024-02-26T10:00:21;100615.81;;;20.08;53.73
79540;BME280;76655;52.122;5.406;2024-02-26T10:02:48;100626.44;;;20.11;53.50
79540;BME280;76655;52.122;5.406;2024-02-26T10:05:19;100624.41;;;20.13;53.63
79540;BME280;76655;52.122;5.406;2024-02-26T10:07:45;100623.41;;;20.14;53.86
79540;BME280;76655;52.122;5.406;2024-02-26T10:10:17;100618.94;;;20.13;53.32
79540;BME280;76655;52.122;5.406;2024-02-26T10:12:44;100631.72;;;20.12;53.07
79540;BME280;76655;52.122;5.406;2024-02-26T10:15:10;100631.91;;;20.11;52.32
79540;BME280;76655;52.122;5.406;2024-02-26T10:17:37;100642.06;;;20.09;52.80
79540;BME280;76655;52.122;5.406;2024-02-26T10:20:16;100634.75;;;20.09;52.77
79540;BME280;76655;52.122;5.406;2024-02-26T10:22:49;100647.53;;;20.09;52.96
79540;BME280;76655;52.122;5.406;2024-02-26T10:25:15;100644.81;;;20.09;52.97
79540;BME280;76655;52.122;5.406;2024-02-26T10:27:42;100647.41;;;20.10;52.73
79540;BME280;76655;52.122;5.406;2024-02-26T10:30:16;100653.72;;;20.11;52.69
79540;BME280;76655;52.122;5.406;2024-02-26T10:32:47;100671.84;;;20.12;52.76
79540;BME280;76655;52.122;5.406;2024-02-26T10:35:15;100669.09;;;20.12;52.61
79540;BME280;76655;52.122;5.406;2024-02-26T10:37:44;100665.66;;;20.10;52.34
79540;BME280;76655;52.122;5.406;2024-02-26T10:40:11;100676.72;;;20.08;51.77
79540;BME280;76655;52.122;5.406;2024-02-26T10:42:38;100672.38;;;20.06;52.09
79540;BME280;76655;52.122;5.406;2024-02-26T10:45:09;100681.31;;;20.08;52.15
79540;BME280;76655;52.122;5.406;2024-02-26T10:47:36;100687.47;;;20.10;52.43
79540;BME280;76655;52.122;5.406;2024-02-26T10:50:04;100696.41;;;20.12;52.26
79540;BME280;76655;52.122;5.406;2024-02-26T10:52:36;100700.72;;;20.14;52.24
79540;BME280;76655;52.122;5.406;2024-02-26T10:55:05;100697.97;;;20.14;52.54
79540;BME280;76655;52.122;5.406;2024-02-26T10:57:40;100702.28;;;20.17;52.48
79540;BME280;76655;52.122;5.406;2024-02-26T11:00:07;100713.94;;;20.19;52.36
79540;BME280;76655;52.122;5.406;2024-02-26T11:02:37;100714.66;;;20.21;52.40
79540;BME280;76655;52.122;5.406;2024-02-26T11:05:05;100715.22;;;20.24;52.52
79540;BME280;76655;52.122;5.406;2024-02-26T11:07:35;100716.09;;;20.25;52.29
79540;BME280;76655;52.122;5.406;2024-02-26T11:10:04;100722.25;;;20.27;52.55
79540;BME280;76655;52.122;5.406;2024-02-26T11:12:33;100720.31;;;20.29;52.34
79540;BME280;76655;52.122;5.406;2024-02-26T11:15:02;100731.06;;;20.30;52.50
79540;BME280;76655;52.122;5.406;2024-02-26T11:17:30;100725.47;;;20.32;52.43
79540;BME280;76655;52.122;5.406;2024-02-26T11:19:59;100725.91;;;20.37;52.51
79540;BME280;76655;52.122;5.406;2024-02-26T11:22:26;100730.06;;;20.41;52.24
79540;BME280;76655;52.122;5.406;2024-02-26T11:24:53;100730.81;;;20.43;52.50
79540;BME280;76655;52.122;5.406;2024-02-26T11:27:31;100735.41;;;20.43;52.36
79540;BME280;76655;52.122;5.406;2024-02-26T11:30:01;100736.97;;;20.45;52.24
79540;BME280;76655;52.122;5.406;2024-02-26T11:32:29;100744.19;;;20.46;52.68
79540;BME280;76655;52.122;5.406;2024-02-26T11:34:58;100742.31;;;20.47;52.63
79540;BME280;76655;52.122;5.406;2024-02-26T11:37:25;100741.16;;;20.49;52.55
79540;BME280;76655;52.122;5.406;2024-02-26T11:39:52;100750.06;;;20.51;52.23
79540;BME280;76655;52.122;5.406;2024-02-26T11:42:23;100751.78;;;20.52;52.35
79540;BME280;76655;52.122;5.406;2024-02-26T11:44:51;100748.94;;;20.54;52.43
79540;BME280;76655;52.122;5.406;2024-02-26T11:47:19;100759.69;;;20.55;52.34
79540;BME280;76655;52.122;5.406;2024-02-26T11:49:46;100763.31;;;20.56;52.66
79540;BME280;76655;52.122;5.406;2024-02-26T11:52:15;100765.91;;;20.57;52.36
79540;BME280;76655;52.122;5.406;2024-02-26T11:54:47;100766.63;;;20.59;52.16
79540;BME280;76655;52.122;5.406;2024-02-26T11:59:51;100775.38;;;20.63;52.60
79540;BME280;76655;52.122;5.406;2024-02-26T12:05:31;100774.97;;;20.67;52.38
79540;BME280;76655;52.122;5.406;2024-02-26T12:08:04;100782.16;;;20.68;52.17
79540;BME280;76655;52.122;5.406;2024-02-26T12:10:38;100785.59;;;20.70;52.32
79540;BME280;76655;52.122;5.406;2024-02-26T12:13:11;100781.88;;;20.71;52.19
79540;BME280;76655;52.122;5.406;2024-02-26T12:15:54;100791.94;;;20.71;52.34
79540;BME280;76655;52.122;5.406;2024-02-26T12:18:22;100795.53;;;20.71;51.87
79540;BME280;76655;52.122;5.406;2024-02-26T12:21:04;100804.44;;;20.73;52.43
79540;BME280;76655;52.122;5.406;2024-02-26T12:23:31;100798.84;;;20.75;52.55
79540;BME280;76655;52.122;5.406;2024-02-26T12:26:01;100803.44;;;20.74;51.94
79540;BME280;76655;52.122;5.406;2024-02-26T12:28:33;100798.97;;;20.73;52.21
79540;BME280;76655;52.122;5.406;2024-02-26T12:30:59;100805.31;;;20.74;52.22
79540;BME280;76655;52.122;5.406;2024-02-26T12:33:27;100817.22;;;20.73;51.93
79540;BME280;76655;52.122;5.406;2024-02-26T12:35:55;100813.66;;;20.72;52.18
79540;BME280;76655;52.122;5.406;2024-02-26T12:38:21;100821.84;;;20.72;51.92
79540;BME280;76655;52.122;5.406;2024-02-26T12:40:48;100817.41;;;20.71;52.18
79540;BME280;76655;52.122;5.406;2024-02-26T12:43:16;100822.84;;;20.71;52.33
79540;BME280;76655;52.122;5.406;2024-02-26T12:45:43;100825.59;;;20.71;51.90
79540;BME280;76655;52.122;5.406;2024-02-26T12:48:13;100824.72;;;20.71;51.95
79540;BME280;76655;52.122;5.406;2024-02-26T12:50:44;100828.31;;;20.71;51.94
79540;BME280;76655;52.122;5.406;2024-02-26T12:53:11;100831.75;;;20.73;52.22
79540;BME280;76655;52.122;5.406;2024-02-26T12:55:38;100834.06;;;20.78;51.74
79540;BME280;76655;52.122;5.406;2024-02-26T12:58:06;100834.78;;;20.80;51.88